Clyo, GA (31303)

9:57 PM EDT on September 18, 2014 (GMT -0400)
MesoWest YOUMANS FARM SC US SCAN | Change Station
CLOSE
Current Station
Personal Weather Station
Location: Estill, SC
Elevation: 75 ft
Nearby Weather Stations

Elev 75 ft 32.67 °N, 81.20 °W | Updated 57 minutes ago

Clear
Clear
77 °F
Feels Like 79 °F
N
4
Wind Variable Wind from East
Gusts 0.0 mph

Today
High -- | Low -- °F
--% Chance of Precip.
Yesterday
High -- | Low -- °F
Precip. -- in
7:10 AM 7:27 PM
Waning Crescent, 23% visible
Pressure 29.98 in
Visibility 10.0 miles
Clouds Scattered Clouds 3600 ft
Mostly Cloudy 4600 ft
Heat Index 79 °F
Dew Point 70 °F
Humidity 80%
Rainfall -999.00 in
Snow Depth Not available.
UV 0 out of 12
Pollen 8.00 out of 12
Air Quality Not available.
Flu Activity Not available.
METAR KJYL 190135Z AUTO 09004KT 10SM SCT036 BKN046 25/23 A2998 RMK AO2 LTG DSNT E T02500232

More Conditions Fewer Conditions

Pressure 29.98 in
Visibility 10.0 miles
Clouds Scattered Clouds 3600 ft
Mostly Cloudy 4600 ft
Heat Index 79 °F
Dew Point 70 °F
Humidity 80%
Rainfall -999.00 in
Snow Depth Not available.
UV 0 out of 12
Pollen 8.00 out of 12
Air Quality Not available.
Flu Activity Not available.
METAR KJYL 190135Z AUTO 09004KT 10SM SCT036 BKN046 25/23 A2998 RMK AO2 LTG DSNT E T02500232

More Conditions Fewer Conditions

10-Day Weather Forecast

Almanac

Astronomy

Sep. 18, 2014 Rise Set
Actual Time 7:10 AM EDT 7:27 PM EDT
Civil Twilight 6:46 AM EDT 7:51 PM EDT
Nautical Twilight 6:17 AM EDT 8:20 PM EDT
Astronomical Twilight 5:48 AM EDT 8:49 PM EDT
Moon 2:14 AM EDT (9/18) 4:05 PM EDT (9/18)
Length of Visible Light 13h 05m
Length of Day
12h 16m
Tomorrow will be 1m 59s shorter.
Waning Crescent, 23% of the Moon is Illuminated
Today
Waning Crescent
Sep 24
New
Oct 1
First Quarter
Oct 8
Full
Oct 15
Last Quarter

Today's Extremes

State Highs State Lows

Community

WunderPhotos

Upload Photos

1,754,529 photos uploaded!

Nearby

Snow Depth

Station Depth Elevation
No new snow has been reported.

Earthquake Activity

City Distance Mag. Time & Date
No recent earthquake activity has been reported nearby.
Minimum magnitude displayed is 2.5.

Coastal Water Temperatures

Place Temperature
No Stations Reporting

Nearby Weather Stations